Flight Track Log - Related Links

Times and Time Zones

All times are in EST time to prevent confusion due to time zone crossing. See the FIN666 flight status page for this flight to view local times or setup timezone preferences in your user account.

Time Position Orientation Groundspeed Altitude Reporting Facility
EST Latitude Longitude Course Direction KTS MPH feet Rate Location/Type
Mon 07:34:00 AM 55.9251 13.2931 49° Northeast  Level Estimated
Mon 07:35:00 AM 56.0014 13.4539 50° Northeast  Level Estimated
Mon 07:36:00 AM 56.0774 13.6154 50° Northeast  Level Estimated
Mon 07:37:00 AM 56.1533 13.7776 50° Northeast  Level Estimated
Mon 07:38:00 AM 56.2301 13.9428 50° Northeast  Level Estimated
Mon 07:39:00 AM 56.3033 14.1015 50° Northeast  Level Estimated
Mon 07:40:00 AM 56.3764 14.2608 50° Northeast  Level Estimated
Mon 07:41:00 AM 56.4493 14.4208 50° Northeast  Level Estimated
Mon 07:42:00 AM 56.5219 14.5814 51° Northeast  Level Estimated
Mon 07:43:00 AM 56.5944 14.7426 51° Northeast  Level Estimated
Mon 07:44:00 AM 56.6666 14.9044 51° Northeast  Level Estimated
Mon 07:45:00 AM 56.7386 15.0668 51° Northeast  Level Estimated
Mon 07:46:00 AM 56.8105 15.2299 51° Northeast  Level Estimated
Mon 07:47:00 AM 56.8821 15.3936 51° Northeast  Level Estimated
Mon 07:48:00 AM 56.9534 15.5579 51° Northeast  Level Estimated
Mon 07:49:00 AM 57.0246 15.7228 52° Northeast  Level Estimated
Mon 07:50:00 AM 57.0956 15.8884 52° Northeast  Level Estimated
Mon 07:51:00 AM 57.1663 16.0546 52° Northeast  Level Estimated
Mon 07:52:00 AM 57.2368 16.2214 52° Northeast  Level Estimated
Mon 07:53:00 AM 57.3071 16.3889 52° Northeast  Level Estimated
Mon 07:54:00 AM 57.3772 16.5570 52° Northeast  Level Estimated
Mon 07:55:00 AM 57.4470 16.7258 52° Northeast  Level Estimated
Mon 07:56:00 AM 57.5166 16.8952 53° Northeast  Level Estimated
Mon 07:57:00 AM 57.5860 17.0652 53° Northeast  Level Estimated
Mon 07:58:00 AM 57.6552 17.2359 53° Northeast  Level Estimated
Mon 07:59:00 AM 57.7241 17.4073 53° Northeast  Level Estimated
Mon 08:00:00 AM 57.7928 17.5793 53° Northeast  Level Estimated
Mon 08:01:00 AM 57.8613 17.7519 53° Northeast  Level Estimated
Mon 08:02:00 AM 57.9295 17.9253 53° Northeast  Level Estimated
Mon 08:03:00 AM 57.9975 18.0992 54° Northeast  Level Estimated
Mon 08:04:00 AM 58.0652 18.2739 54° Northeast  Level Estimated
Mon 08:05:00 AM 58.1328 18.4492 54° Northeast  Level Estimated
Mon 08:06:00 AM 58.2000 18.6251 54° Northeast  Level Estimated
Mon 08:07:00 AM 58.2671 18.8018 54° Northeast  Level Estimated
Mon 08:08:00 AM 58.3338 18.9791 54° Northeast  Level Estimated
Mon 08:09:00 AM 58.4004 19.1570 54° Northeast  Level Estimated
Mon 08:10:00 AM 58.4667 19.3357 55° Northeast  Level Estimated
Mon 08:11:00 AM 58.5327 19.5150 55° Northeast  Level Estimated
Mon 08:12:00 AM 58.5985 19.6950 55° Northeast  Level Estimated
Mon 08:13:00 AM 58.6640 19.8757 55° Northeast  Level Estimated
Mon 08:14:00 AM 58.7293 20.0570 55° Northeast  Level Estimated
Mon 08:15:00 AM 58.7944 20.2390 55° Northeast  Level Estimated
Mon 08:16:00 AM 58.8591 20.4217 56° Northeast  Level Estimated
Mon 08:17:00 AM 58.9236 20.6051 56° Northeast  Level Estimated
Mon 08:18:00 AM 58.9879 20.7892 56° Northeast  Level Estimated
Mon 08:19:00 AM 59.0519 20.9740 56° Northeast  Level Estimated
Mon 08:20:00 AM 59.1156 21.1594 56° Northeast  Level Estimated
Mon 08:21:00 AM 59.1791 21.3456 56° Northeast  Level Estimated
Mon 08:22:00 AM 59.2423 21.5324 56° Northeast  Level Estimated
Mon 08:23:00 AM 59.3052 21.7199 57° Northeast  Level Estimated
Mon 08:24:00 AM 59.3679 21.9081 57° Northeast  Level Estimated
Mon 08:25:00 AM 59.4302 22.0970 57° Northeast  Level Estimated
Mon 08:26:00 AM 59.4923 22.2866 57° Northeast  Level Estimated
Mon 08:27:00 AM 59.5542 22.4769 57° Northeast  Level Estimated
Mon 08:28:00 AM 59.6157 22.6679 57° Northeast  Level Estimated
Mon 08:29:00 AM 59.6770 22.8596 58° Northeast  Level Estimated
Mon 08:30:00 AM 59.7380 23.0520 58° Northeast  Level Estimated
Mon 08:31:00 AM 59.7987 23.2452 58° Northeast  Level Estimated
Mon 08:32:00 AM 59.8592 23.4390 58° Northeast  Level Estimated
Mon 08:33:00 AM 59.9193 23.6335 58° Northeast  Level Estimated
Mon 08:34:00 AM 59.9792 23.8287 58° Northeast  Level Estimated
Mon 08:35:00 AM 60.0387 24.0246 59° Northeast  Level Estimated
Mon 08:36:00 AM 60.0980 24.2213 59° Northeast  Level Estimated
Mon 08:37:00 AM 60.1570 24.4186 59° Northeast  Level Estimated
Mon 08:38:00 AM 60.2157 24.6166 59° Northeast  Level Estimated
Mon 08:39:00 AM 60.2741 24.8154 59° Northeast  Level Estimated
Mon 08:40:00 AM 60.3172 24.9633 59° Northeast  Level Estimated
Mon 08:41:00 AM 60.3172 24.9633 37° Northeast  Level Estimated
Mon 08:42:00 AM 60.3172 24.9633 37° Northeast  Level Estimated
Mon 08:43:00 AM 60.3172 24.9633 37° Northeast  Level Estimated
Mon 08:44:00 AM 60.3172 24.9633 37° Northeast  Level Estimated
Mon 08:45:00 AM 60.3172 24.9633 37° Northeast  Level Estimated
Mon 08:46:00 AM 60.3172 24.9633 37° Northeast  Level Estimated
Mon 08:47:00 AM 60.3172 24.9633 37° Northeast  Level Estimated
Mon 08:48:00 AM 60.3172 24.9633 37° Northeast  Level Estimated
Mon 08:49:00 AM 60.3172 24.9633 37° Northeast  Level Estimated
Mon 08:50:00 AM 60.3172 24.9633 37° Northeast  Level Estimated
Mon 08:51:00 AM 60.3172 24.9633 37° Northeast  Level Estimated

Login

Don't have an account? Register now (free) for customized features, flight alerts, and more!